sensor_id;sensor_type;location;lat;lon;timestamp;temperature;humidity
15450;DHT22;7826;49.784;9.934;2022-10-18T00:02:08;13.30;99.90
15450;DHT22;7826;49.784;9.934;2022-10-18T00:04:34;13.30;99.90
15450;DHT22;7826;49.784;9.934;2022-10-18T00:07:00;13.30;99.90
15450;DHT22;7826;49.784;9.934;2022-10-18T00:09:27;13.20;99.90
15450;DHT22;7826;49.784;9.934;2022-10-18T00:11:54;13.20;99.90
15450;DHT22;7826;49.784;9.934;2022-10-18T00:14:21;13.20;99.90
15450;DHT22;7826;49.784;9.934;2022-10-18T00:16:47;13.20;99.90
15450;DHT22;7826;49.784;9.934;2022-10-18T00:19:14;13.20;99.90
15450;DHT22;7826;49.784;9.934;2022-10-18T00:21:40;13.10;99.90
15450;DHT22;7826;49.784;9.934;2022-10-18T00:24:07;13.10;99.90
15450;DHT22;7826;49.784;9.934;2022-10-18T00:26:33;13.10;99.90
15450;DHT22;7826;49.784;9.934;2022-10-18T00:29:02;13.10;99.90
15450;DHT22;7826;49.784;9.934;2022-10-18T00:31:34;13.10;99.90
15450;DHT22;7826;49.784;9.934;2022-10-18T00:34:14;13.10;99.90
15450;DHT22;7826;49.784;9.934;2022-10-18T00:36:41;13.10;99.90
15450;DHT22;7826;49.784;9.934;2022-10-18T00:39:15;13.00;99.90
15450;DHT22;7826;49.784;9.934;2022-10-18T00:41:52;13.00;99.90
15450;DHT22;7826;49.784;9.934;2022-10-18T00:46:54;13.00;99.90
15450;DHT22;7826;49.784;9.934;2022-10-18T00:49:47;13.00;99.90
15450;DHT22;7826;49.784;9.934;2022-10-18T00:52:28;12.90;99.90
15450;DHT22;7826;49.784;9.934;2022-10-18T00:54:56;12.90;99.90
15450;DHT22;7826;49.784;9.934;2022-10-18T00:57:23;12.90;99.90
15450;DHT22;7826;49.784;9.934;2022-10-18T00:59:50;12.90;99.90
15450;DHT22;7826;49.784;9.934;2022-10-18T01:02:17;12.90;99.90
15450;DHT22;7826;49.784;9.934;2022-10-18T01:04:44;12.90;99.90
15450;DHT22;7826;49.784;9.934;2022-10-18T01:18:40;12.90;99.90
15450;DHT22;7826;49.784;9.934;2022-10-18T01:21:13;12.90;99.90
15450;DHT22;7826;49.784;9.934;2022-10-18T01:32:00;12.90;99.90
15450;DHT22;7826;49.784;9.934;2022-10-18T01:34:30;12.90;99.90
15450;DHT22;7826;49.784;9.934;2022-10-18T01:37:00;12.90;99.90
15450;DHT22;7826;49.784;9.934;2022-10-18T01:39:31;12.90;99.90
15450;DHT22;7826;49.784;9.934;2022-10-18T01:42:02;13.00;99.90
15450;DHT22;7826;49.784;9.934;2022-10-18T01:44:30;13.00;99.90
15450;DHT22;7826;49.784;9.934;2022-10-18T01:46:58;13.00;99.90
15450;DHT22;7826;49.784;9.934;2022-10-18T01:49:26;13.10;99.90
15450;DHT22;7826;49.784;9.934;2022-10-18T01:51:52;13.00;99.90
15450;DHT22;7826;49.784;9.934;2022-10-18T01:54:23;13.00;99.90
15450;DHT22;7826;49.784;9.934;2022-10-18T01:56:56;13.00;99.90
15450;DHT22;7826;49.784;9.934;2022-10-18T02:07:47;13.00;99.90
15450;DHT22;7826;49.784;9.934;2022-10-18T02:10:22;13.00;99.90
15450;DHT22;7826;49.784;9.934;2022-10-18T02:12:53;13.00;99.90
15450;DHT22;7826;49.784;9.934;2022-10-18T02:15:25;13.10;99.90
15450;DHT22;7826;49.784;9.934;2022-10-18T02:17:53;13.10;99.90
15450;DHT22;7826;49.784;9.934;2022-10-18T02:20:24;13.10;99.90
15450;DHT22;7826;49.784;9.934;2022-10-18T02:22:52;13.10;99.90
15450;DHT22;7826;49.784;9.934;2022-10-18T02:25:23;13.10;99.90
15450;DHT22;7826;49.784;9.934;2022-10-18T02:27:50;13.20;99.90
15450;DHT22;7826;49.784;9.934;2022-10-18T02:30:19;13.20;99.90
15450;DHT22;7826;49.784;9.934;2022-10-18T02:32:53;13.20;99.90
15450;DHT22;7826;49.784;9.934;2022-10-18T02:35:38;13.20;99.90
15450;DHT22;7826;49.784;9.934;2022-10-18T02:38:08;13.20;99.90
15450;DHT22;7826;49.784;9.934;2022-10-18T02:40:34;13.20;99.90
15450;DHT22;7826;49.784;9.934;2022-10-18T02:43:01;13.30;99.90
15450;DHT22;7826;49.784;9.934;2022-10-18T02:45:27;13.30;99.90
15450;DHT22;7826;49.784;9.934;2022-10-18T02:47:54;13.30;99.90
15450;DHT22;7826;49.784;9.934;2022-10-18T02:50:21;13.30;99.90
15450;DHT22;7826;49.784;9.934;2022-10-18T02:52:47;13.20;99.90
15450;DHT22;7826;49.784;9.934;2022-10-18T02:55:14;13.30;99.90
15450;DHT22;7826;49.784;9.934;2022-10-18T02:57:40;13.30;99.90
15450;DHT22;7826;49.784;9.934;2022-10-18T03:00:07;13.30;99.90
15450;DHT22;7826;49.784;9.934;2022-10-18T03:02:34;13.30;99.90
15450;DHT22;7826;49.784;9.934;2022-10-18T03:05:00;13.30;99.90
15450;DHT22;7826;49.784;9.934;2022-10-18T03:07:27;13.30;99.90
15450;DHT22;7826;49.784;9.934;2022-10-18T03:09:53;13.40;99.90
15450;DHT22;7826;49.784;9.934;2022-10-18T03:12:19;13.40;99.90
15450;DHT22;7826;49.784;9.934;2022-10-18T03:14:46;13.40;99.90
15450;DHT22;7826;49.784;9.934;2022-10-18T03:17:12;13.40;99.90
15450;DHT22;7826;49.784;9.934;2022-10-18T03:19:38;13.40;99.90
15450;DHT22;7826;49.784;9.934;2022-10-18T03:22:05;13.40;99.90
15450;DHT22;7826;49.784;9.934;2022-10-18T03:24:31;13.40;99.90
15450;DHT22;7826;49.784;9.934;2022-10-18T03:26:57;13.40;99.90
15450;DHT22;7826;49.784;9.934;2022-10-18T03:29:37;13.40;99.90
15450;DHT22;7826;49.784;9.934;2022-10-18T03:32:04;13.40;99.90
15450;DHT22;7826;49.784;9.934;2022-10-18T03:34:31;13.40;99.90
15450;DHT22;7826;49.784;9.934;2022-10-18T03:36:57;13.40;99.90
15450;DHT22;7826;49.784;9.934;2022-10-18T03:39:23;13.50;99.90
15450;DHT22;7826;49.784;9.934;2022-10-18T03:41:50;13.50;99.90
15450;DHT22;7826;49.784;9.934;2022-10-18T03:44:16;13.50;99.90
15450;DHT22;7826;49.784;9.934;2022-10-18T03:46:43;13.50;99.90
15450;DHT22;7826;49.784;9.934;2022-10-18T03:49:09;13.50;99.90
15450;DHT22;7826;49.784;9.934;2022-10-18T03:51:35;13.50;99.90
15450;DHT22;7826;49.784;9.934;2022-10-18T03:54:02;13.60;99.90
15450;DHT22;7826;49.784;9.934;2022-10-18T03:56:28;13.60;99.90
15450;DHT22;7826;49.784;9.934;2022-10-18T03:58:54;13.60;99.90
15450;DHT22;7826;49.784;9.934;2022-10-18T04:01:22;13.60;99.90
15450;DHT22;7826;49.784;9.934;2022-10-18T04:03:48;13.60;99.90
15450;DHT22;7826;49.784;9.934;2022-10-18T04:06:14;13.60;99.90
15450;DHT22;7826;49.784;9.934;2022-10-18T04:08:41;13.60;99.90
15450;DHT22;7826;49.784;9.934;2022-10-18T04:11:07;13.60;99.90
15450;DHT22;7826;49.784;9.934;2022-10-18T04:13:35;13.70;99.90
15450;DHT22;7826;49.784;9.934;2022-10-18T04:16:02;13.70;99.90
15450;DHT22;7826;49.784;9.934;2022-10-18T04:18:29;13.70;99.90
15450;DHT22;7826;49.784;9.934;2022-10-18T04:20:55;13.70;99.90
15450;DHT22;7826;49.784;9.934;2022-10-18T04:23:21;13.70;99.90
15450;DHT22;7826;49.784;9.934;2022-10-18T04:25:48;13.70;99.90
15450;DHT22;7826;49.784;9.934;2022-10-18T04:28:14;13.80;99.90
15450;DHT22;7826;49.784;9.934;2022-10-18T04:30:42;13.80;99.90
15450;DHT22;7826;49.784;9.934;2022-10-18T04:33:09;13.80;99.90
15450;DHT22;7826;49.784;9.934;2022-10-18T04:35:35;13.80;99.90
15450;DHT22;7826;49.784;9.934;2022-10-18T04:38:02;13.80;99.90
15450;DHT22;7826;49.784;9.934;2022-10-18T04:40:28;13.80;99.90
15450;DHT22;7826;49.784;9.934;2022-10-18T04:42:55;13.80;99.90
15450;DHT22;7826;49.784;9.934;2022-10-18T04:45:21;13.80;99.90
15450;DHT22;7826;49.784;9.934;2022-10-18T04:47:48;13.80;99.90
15450;DHT22;7826;49.784;9.934;2022-10-18T04:50:14;13.80;99.90
15450;DHT22;7826;49.784;9.934;2022-10-18T04:52:43;13.90;99.90
15450;DHT22;7826;49.784;9.934;2022-10-18T04:55:10;13.90;99.90
15450;DHT22;7826;49.784;9.934;2022-10-18T04:57:36;13.70;99.90
15450;DHT22;7826;49.784;9.934;2022-10-18T05:00:03;13.90;99.90
15450;DHT22;7826;49.784;9.934;2022-10-18T05:02:29;13.90;99.90
15450;DHT22;7826;49.784;9.934;2022-10-18T05:04:56;13.90;99.90
15450;DHT22;7826;49.784;9.934;2022-10-18T05:07:22;13.90;99.90
15450;DHT22;7826;49.784;9.934;2022-10-18T05:09:48;14.00;99.90
15450;DHT22;7826;49.784;9.934;2022-10-18T05:12:14;14.00;99.90
15450;DHT22;7826;49.784;9.934;2022-10-18T05:14:41;14.00;99.90
15450;DHT22;7826;49.784;9.934;2022-10-18T05:17:07;14.00;99.90
15450;DHT22;7826;49.784;9.934;2022-10-18T05:19:33;14.00;99.90
15450;DHT22;7826;49.784;9.934;2022-10-18T05:22:00;14.00;99.90
15450;DHT22;7826;49.784;9.934;2022-10-18T05:24:26;14.00;99.90
15450;DHT22;7826;49.784;9.934;2022-10-18T05:26:52;14.00;99.90
15450;DHT22;7826;49.784;9.934;2022-10-18T05:29:18;14.00;99.90
15450;DHT22;7826;49.784;9.934;2022-10-18T05:31:45;14.00;99.90
15450;DHT22;7826;49.784;9.934;2022-10-18T05:34:11;13.90;99.90
15450;DHT22;7826;49.784;9.934;2022-10-18T05:36:38;13.90;99.90
15450;DHT22;7826;49.784;9.934;2022-10-18T05:39:05;13.90;99.90
15450;DHT22;7826;49.784;9.934;2022-10-18T05:41:32;13.90;99.90
15450;DHT22;7826;49.784;9.934;2022-10-18T05:44:02;13.90;99.90
15450;DHT22;7826;49.784;9.934;2022-10-18T05:46:29;13.90;99.90
15450;DHT22;7826;49.784;9.934;2022-10-18T05:48:55;14.00;99.90
15450;DHT22;7826;49.784;9.934;2022-10-18T05:51:21;14.00;99.90
15450;DHT22;7826;49.784;9.934;2022-10-18T05:53:48;14.00;99.90
15450;DHT22;7826;49.784;9.934;2022-10-18T05:56:14;13.90;99.90
15450;DHT22;7826;49.784;9.934;2022-10-18T05:58:41;13.90;99.90
15450;DHT22;7826;49.784;9.934;2022-10-18T06:01:09;13.90;99.90
15450;DHT22;7826;49.784;9.934;2022-10-18T06:03:35;13.90;99.90
15450;DHT22;7826;49.784;9.934;2022-10-18T06:06:07;13.90;99.90
15450;DHT22;7826;49.784;9.934;2022-10-18T06:08:34;13.80;99.90
15450;DHT22;7826;49.784;9.934;2022-10-18T06:11:13;13.80;99.90
15450;DHT22;7826;49.784;9.934;2022-10-18T06:13:47;13.80;99.90
15450;DHT22;7826;49.784;9.934;2022-10-18T06:16:15;13.80;99.90
15450;DHT22;7826;49.784;9.934;2022-10-18T06:18:49;13.90;99.90
15450;DHT22;7826;49.784;9.934;2022-10-18T06:21:16;13.90;99.90
15450;DHT22;7826;49.784;9.934;2022-10-18T06:23:43;13.90;99.90
15450;DHT22;7826;49.784;9.934;2022-10-18T06:26:10;13.90;99.90
15450;DHT22;7826;49.784;9.934;2022-10-18T06:28:37;13.90;99.90
15450;DHT22;7826;49.784;9.934;2022-10-18T06:31:05;13.90;99.90
15450;DHT22;7826;49.784;9.934;2022-10-18T06:33:33;14.00;99.90
15450;DHT22;7826;49.784;9.934;2022-10-18T06:36:05;14.00;99.90
15450;DHT22;7826;49.784;9.934;2022-10-18T06:38:32;14.00;99.90
15450;DHT22;7826;49.784;9.934;2022-10-18T06:40:59;14.00;99.90
15450;DHT22;7826;49.784;9.934;2022-10-18T06:43:26;14.10;99.90
15450;DHT22;7826;49.784;9.934;2022-10-18T06:45:53;14.20;99.90
15450;DHT22;7826;49.784;9.934;2022-10-18T06:48:20;14.30;99.90
15450;DHT22;7826;49.784;9.934;2022-10-18T06:51:06;14.40;99.90
15450;DHT22;7826;49.784;9.934;2022-10-18T06:53:35;14.50;99.90
15450;DHT22;7826;49.784;9.934;2022-10-18T06:56:07;14.60;99.90
15450;DHT22;7826;49.784;9.934;2022-10-18T06:58:34;14.80;99.90
15450;DHT22;7826;49.784;9.934;2022-10-18T07:01:11;15.20;99.90
15450;DHT22;7826;49.784;9.934;2022-10-18T07:03:38;15.60;99.90
15450;DHT22;7826;49.784;9.934;2022-10-18T07:06:06;15.90;99.90
15450;DHT22;7826;49.784;9.934;2022-10-18T07:08:33;16.10;99.90
15450;DHT22;7826;49.784;9.934;2022-10-18T07:11:00;16.30;99.90
15450;DHT22;7826;49.784;9.934;2022-10-18T07:13:28;16.50;99.90
15450;DHT22;7826;49.784;9.934;2022-10-18T07:16:02;16.60;99.90
15450;DHT22;7826;49.784;9.934;2022-10-18T07:18:29;16.60;99.90
15450;DHT22;7826;49.784;9.934;2022-10-18T07:20:55;16.70;99.90
15450;DHT22;7826;49.784;9.934;2022-10-18T07:23:21;16.90;99.90
15450;DHT22;7826;49.784;9.934;2022-10-18T07:25:49;17.10;99.90
15450;DHT22;7826;49.784;9.934;2022-10-18T07:28:15;17.30;99.90
15450;DHT22;7826;49.784;9.934;2022-10-18T07:30:42;17.50;99.90
15450;DHT22;7826;49.784;9.934;2022-10-18T07:33:08;17.60;99.90
15450;DHT22;7826;49.784;9.934;2022-10-18T07:35:35;17.50;99.90
15450;DHT22;7826;49.784;9.934;2022-10-18T07:38:01;17.50;99.90
15450;DHT22;7826;49.784;9.934;2022-10-18T07:40:28;17.50;99.90
15450;DHT22;7826;49.784;9.934;2022-10-18T07:42:54;17.30;99.90
15450;DHT22;7826;49.784;9.934;2022-10-18T07:45:20;17.30;99.90
15450;DHT22;7826;49.784;9.934;2022-10-18T07:47:51;17.20;99.90
15450;DHT22;7826;49.784;9.934;2022-10-18T07:50:18;17.10;99.90
15450;DHT22;7826;49.784;9.934;2022-10-18T07:52:45;16.90;99.90
15450;DHT22;7826;49.784;9.934;2022-10-18T07:55:11;16.80;99.90
15450;DHT22;7826;49.784;9.934;2022-10-18T07:57:38;16.80;99.90
15450;DHT22;7826;49.784;9.934;2022-10-18T08:00:05;16.80;99.90
15450;DHT22;7826;49.784;9.934;2022-10-18T08:02:31;16.90;99.90
15450;DHT22;7826;49.784;9.934;2022-10-18T08:04:58;17.00;99.90
15450;DHT22;7826;49.784;9.934;2022-10-18T08:07:24;17.10;99.90
15450;DHT22;7826;49.784;9.934;2022-10-18T08:09:50;17.20;99.90
15450;DHT22;7826;49.784;9.934;2022-10-18T08:12:17;17.30;99.90
15450;DHT22;7826;49.784;9.934;2022-10-18T08:14:43;17.40;99.90
15450;DHT22;7826;49.784;9.934;2022-10-18T08:17:09;17.40;99.90
15450;DHT22;7826;49.784;9.934;2022-10-18T08:19:35;17.50;99.90
15450;DHT22;7826;49.784;9.934;2022-10-18T08:22:02;17.50;99.90
15450;DHT22;7826;49.784;9.934;2022-10-18T08:24:28;17.50;99.90
15450;DHT22;7826;49.784;9.934;2022-10-18T08:26:54;17.50;99.90
15450;DHT22;7826;49.784;9.934;2022-10-18T08:29:21;17.40;99.90
15450;DHT22;7826;49.784;9.934;2022-10-18T08:31:49;17.40;99.90
15450;DHT22;7826;49.784;9.934;2022-10-18T08:34:16;17.40;99.90
15450;DHT22;7826;49.784;9.934;2022-10-18T08:36:42;17.30;99.90
15450;DHT22;7826;49.784;9.934;2022-10-18T08:39:08;17.20;99.90
15450;DHT22;7826;49.784;9.934;2022-10-18T08:44:31;17.00;99.90
15450;DHT22;7826;49.784;9.934;2022-10-18T08:47:03;17.00;99.90
15450;DHT22;7826;49.784;9.934;2022-10-18T08:49:38;17.00;99.90
15450;DHT22;7826;49.784;9.934;2022-10-18T08:54:57;17.00;99.90
15450;DHT22;7826;49.784;9.934;2022-10-18T08:57:25;17.00;99.90
15450;DHT22;7826;49.784;9.934;2022-10-18T08:59:51;17.00;99.90
15450;DHT22;7826;49.784;9.934;2022-10-18T09:07:43;16.80;99.90
15450;DHT22;7826;49.784;9.934;2022-10-18T09:10:41;16.70;99.90
15450;DHT22;7826;49.784;9.934;2022-10-18T09:16:28;16.30;99.90
15450;DHT22;7826;49.784;9.934;2022-10-18T09:21:50;15.90;99.90
15450;DHT22;7826;49.784;9.934;2022-10-18T09:24:39;15.80;99.90
15450;DHT22;7826;49.784;9.934;2022-10-18T09:27:18;15.60;99.90
15450;DHT22;7826;49.784;9.934;2022-10-18T09:30:02;15.50;99.90
15450;DHT22;7826;49.784;9.934;2022-10-18T09:32:58;15.40;99.90
15450;DHT22;7826;49.784;9.934;2022-10-18T09:39:03;15.40;99.90
15450;DHT22;7826;49.784;9.934;2022-10-18T09:41:34;15.70;99.90
15450;DHT22;7826;49.784;9.934;2022-10-18T09:44:21;15.90;99.90
15450;DHT22;7826;49.784;9.934;2022-10-18T09:46:57;16.20;99.90
15450;DHT22;7826;49.784;9.934;2022-10-18T09:49:36;16.30;99.90
15450;DHT22;7826;49.784;9.934;2022-10-18T09:52:16;16.50;99.90
15450;DHT22;7826;49.784;9.934;2022-10-18T09:54:51;16.70;99.90
15450;DHT22;7826;49.784;9.934;2022-10-18T09:59:53;16.90;99.90
15450;DHT22;7826;49.784;9.934;2022-10-18T10:02:22;16.90;99.90
15450;DHT22;7826;49.784;9.934;2022-10-18T10:04:49;16.80;99.90
15450;DHT22;7826;49.784;9.934;2022-10-18T10:07:25;16.80;99.90
15450;DHT22;7826;49.784;9.934;2022-10-18T10:10:06;16.90;99.90
15450;DHT22;7826;49.784;9.934;2022-10-18T10:12:35;16.80;99.90
15450;DHT22;7826;49.784;9.934;2022-10-18T10:17:33;16.80;99.90
15450;DHT22;7826;49.784;9.934;2022-10-18T10:22:34;16.80;99.90
15450;DHT22;7826;49.784;9.934;2022-10-18T10:25:01;16.80;99.90
15450;DHT22;7826;49.784;9.934;2022-10-18T10:27:33;16.90;99.90
15450;DHT22;7826;49.784;9.934;2022-10-18T10:30:24;16.90;99.90
15450;DHT22;7826;49.784;9.934;2022-10-18T10:32:52;16.90;99.90
15450;DHT22;7826;49.784;9.934;2022-10-18T10:35:29;16.90;99.90
15450;DHT22;7826;49.784;9.934;2022-10-18T10:37:56;16.90;99.90
15450;DHT22;7826;49.784;9.934;2022-10-18T10:40:28;16.90;99.90
15450;DHT22;7826;49.784;9.934;2022-10-18T10:42:59;17.00;99.90
15450;DHT22;7826;49.784;9.934;2022-10-18T10:45:32;17.00;99.90
15450;DHT22;7826;49.784;9.934;2022-10-18T10:48:06;17.00;99.90
15450;DHT22;7826;49.784;9.934;2022-10-18T10:53:39;17.30;99.90
15450;DHT22;7826;49.784;9.934;2022-10-18T10:56:22;17.30;99.90
15450;DHT22;7826;49.784;9.934;2022-10-18T10:58:50;17.30;99.90
15450;DHT22;7826;49.784;9.934;2022-10-18T11:03:49;17.40;99.90
15450;DHT22;7826;49.784;9.934;2022-10-18T11:08:59;17.50;99.90
15450;DHT22;7826;49.784;9.934;2022-10-18T11:11:31;17.50;99.90
15450;DHT22;7826;49.784;9.934;2022-10-18T11:14:20;17.40;99.90
15450;DHT22;7826;49.784;9.934;2022-10-18T11:22:08;17.40;99.90
15450;DHT22;7826;49.784;9.934;2022-10-18T11:24:35;17.30;99.90
15450;DHT22;7826;49.784;9.934;2022-10-18T11:32:32;17.20;99.90
15450;DHT22;7826;49.784;9.934;2022-10-18T11:35:27;17.30;99.90
15450;DHT22;7826;49.784;9.934;2022-10-18T11:38:08;17.40;99.90
15450;DHT22;7826;49.784;9.934;2022-10-18T11:40:50;17.40;99.90
15450;DHT22;7826;49.784;9.934;2022-10-18T11:46:12;17.50;99.90
15450;DHT22;7826;49.784;9.934;2022-10-18T12:05:51;17.80;99.90
15450;DHT22;7826;49.784;9.934;2022-10-18T12:08:31;17.90;99.90
15450;DHT22;7826;49.784;9.934;2022-10-18T12:11:05;17.90;99.90
15450;DHT22;7826;49.784;9.934;2022-10-18T12:13:38;18.10;99.90
15450;DHT22;7826;49.784;9.934;2022-10-18T12:16:06;18.10;99.90
15450;DHT22;7826;49.784;9.934;2022-10-18T12:19:10;18.10;99.90
15450;DHT22;7826;49.784;9.934;2022-10-18T12:21:33;18.10;99.90
15450;DHT22;7826;49.784;9.934;2022-10-18T12:24:14;18.00;99.90
15450;DHT22;7826;49.784;9.934;2022-10-18T12:26:44;17.90;99.90
15450;DHT22;7826;49.784;9.934;2022-10-18T12:29:28;17.90;99.90
15450;DHT22;7826;49.784;9.934;2022-10-18T12:32:02;17.80;99.90
15450;DHT22;7826;49.784;9.934;2022-10-18T12:34:35;17.80;99.90
15450;DHT22;7826;49.784;9.934;2022-10-18T12:39:46;17.60;99.90
15450;DHT22;7826;49.784;9.934;2022-10-18T12:42:27;17.60;99.90
15450;DHT22;7826;49.784;9.934;2022-10-18T12:45:18;17.80;99.90
15450;DHT22;7826;49.784;9.934;2022-10-18T12:47:45;17.70;99.90
15450;DHT22;7826;49.784;9.934;2022-10-18T12:55:39;17.50;99.90
15450;DHT22;7826;49.784;9.934;2022-10-18T13:18:55;17.20;99.90
15450;DHT22;7826;49.784;9.934;2022-10-18T13:21:31;17.30;99.90
15450;DHT22;7826;49.784;9.934;2022-10-18T13:24:22;17.40;99.90
15450;DHT22;7826;49.784;9.934;2022-10-18T13:34:48;17.50;99.90
15450;DHT22;7826;49.784;9.934;2022-10-18T13:39:42;17.50;99.90
15450;DHT22;7826;49.784;9.934;2022-10-18T13:44:42;17.40;99.90
15450;DHT22;7826;49.784;9.934;2022-10-18T13:47:12;17.40;99.90
15450;DHT22;7826;49.784;9.934;2022-10-18T13:49:52;17.30;99.90
15450;DHT22;7826;49.784;9.934;2022-10-18T14:06:58;17.30;99.90
15450;DHT22;7826;49.784;9.934;2022-10-18T14:09:30;17.30;99.90
15450;DHT22;7826;49.784;9.934;2022-10-18T14:12:07;17.40;99.90
15450;DHT22;7826;49.784;9.934;2022-10-18T14:14:45;17.30;99.90
15450;DHT22;7826;49.784;9.934;2022-10-18T14:17:40;17.30;99.90
15450;DHT22;7826;49.784;9.934;2022-10-18T14:20:26;17.50;99.90
15450;DHT22;7826;49.784;9.934;2022-10-18T14:23:25;17.50;99.90
15450;DHT22;7826;49.784;9.934;2022-10-18T14:26:10;17.50;99.90
15450;DHT22;7826;49.784;9.934;2022-10-18T14:28:37;17.40;99.90
15450;DHT22;7826;49.784;9.934;2022-10-18T14:31:09;17.40;99.90
15450;DHT22;7826;49.784;9.934;2022-10-18T14:33:41;17.20;99.90
15450;DHT22;7826;49.784;9.934;2022-10-18T14:43:47;17.00;99.90
15450;DHT22;7826;49.784;9.934;2022-10-18T14:48:58;17.00;99.90
15450;DHT22;7826;49.784;9.934;2022-10-18T14:51:26;17.00;99.90
15450;DHT22;7826;49.784;9.934;2022-10-18T14:53:54;16.90;99.90
15450;DHT22;7826;49.784;9.934;2022-10-18T14:56:29;16.90;99.90
15450;DHT22;7826;49.784;9.934;2022-10-18T14:58:59;16.80;99.90
15450;DHT22;7826;49.784;9.934;2022-10-18T15:01:29;16.70;99.90
15450;DHT22;7826;49.784;9.934;2022-10-18T15:04:08;16.70;99.90
15450;DHT22;7826;49.784;9.934;2022-10-18T15:06:35;16.80;99.90
15450;DHT22;7826;49.784;9.934;2022-10-18T15:09:03;16.70;99.90
15450;DHT22;7826;49.784;9.934;2022-10-18T15:11:30;16.70;99.90
15450;DHT22;7826;49.784;9.934;2022-10-18T15:14:00;16.70;99.90
15450;DHT22;7826;49.784;9.934;2022-10-18T15:16:35;16.70;99.90
15450;DHT22;7826;49.784;9.934;2022-10-18T15:19:22;16.80;99.90
15450;DHT22;7826;49.784;9.934;2022-10-18T15:21:59;16.80;99.90
15450;DHT22;7826;49.784;9.934;2022-10-18T15:24:30;16.80;99.90
15450;DHT22;7826;49.784;9.934;2022-10-18T15:29:44;16.90;99.90
15450;DHT22;7826;49.784;9.934;2022-10-18T15:32:24;16.90;99.90
15450;DHT22;7826;49.784;9.934;2022-10-18T15:34:52;16.90;99.90
15450;DHT22;7826;49.784;9.934;2022-10-18T15:42:44;16.90;99.90
15450;DHT22;7826;49.784;9.934;2022-10-18T15:48:13;16.80;99.90
15450;DHT22;7826;49.784;9.934;2022-10-18T15:50:47;16.80;99.90
15450;DHT22;7826;49.784;9.934;2022-10-18T15:55:50;16.80;99.90
15450;DHT22;7826;49.784;9.934;2022-10-18T16:00:46;16.70;99.90
15450;DHT22;7826;49.784;9.934;2022-10-18T16:03:14;16.60;99.90
15450;DHT22;7826;49.784;9.934;2022-10-18T16:05:41;16.50;99.90
15450;DHT22;7826;49.784;9.934;2022-10-18T16:08:20;16.50;99.90
15450;DHT22;7826;49.784;9.934;2022-10-18T16:10:47;16.40;99.90
15450;DHT22;7826;49.784;9.934;2022-10-18T16:13:13;16.30;99.90
15450;DHT22;7826;49.784;9.934;2022-10-18T16:15:39;16.20;99.90
15450;DHT22;7826;49.784;9.934;2022-10-18T16:18:07;16.10;99.90
15450;DHT22;7826;49.784;9.934;2022-10-18T16:20:34;16.10;99.90
15450;DHT22;7826;49.784;9.934;2022-10-18T16:23:00;16.00;99.90
15450;DHT22;7826;49.784;9.934;2022-10-18T16:25:26;16.00;99.90
15450;DHT22;7826;49.784;9.934;2022-10-18T16:27:53;16.00;99.90
15450;DHT22;7826;49.784;9.934;2022-10-18T16:30:20;15.90;99.90
15450;DHT22;7826;49.784;9.934;2022-10-18T16:32:47;15.80;99.90
15450;DHT22;7826;49.784;9.934;2022-10-18T16:35:14;15.80;99.90
15450;DHT22;7826;49.784;9.934;2022-10-18T16:37:40;15.80;99.90
15450;DHT22;7826;49.784;9.934;2022-10-18T16:40:19;15.80;99.90
15450;DHT22;7826;49.784;9.934;2022-10-18T16:42:46;15.80;99.90
15450;DHT22;7826;49.784;9.934;2022-10-18T16:45:13;15.80;99.90
15450;DHT22;7826;49.784;9.934;2022-10-18T16:47:40;15.70;99.90
15450;DHT22;7826;49.784;9.934;2022-10-18T16:50:09;15.70;99.90
15450;DHT22;7826;49.784;9.934;2022-10-18T16:52:38;15.60;99.90
15450;DHT22;7826;49.784;9.934;2022-10-18T16:55:05;15.60;99.90
15450;DHT22;7826;49.784;9.934;2022-10-18T16:57:32;15.60;99.90
15450;DHT22;7826;49.784;9.934;2022-10-18T16:59:58;15.60;99.90
15450;DHT22;7826;49.784;9.934;2022-10-18T17:02:24;15.50;99.90
15450;DHT22;7826;49.784;9.934;2022-10-18T17:04:50;15.50;99.90
15450;DHT22;7826;49.784;9.934;2022-10-18T17:07:23;15.50;99.90
15450;DHT22;7826;49.784;9.934;2022-10-18T17:09:50;15.50;99.90
15450;DHT22;7826;49.784;9.934;2022-10-18T17:12:16;15.50;99.90
15450;DHT22;7826;49.784;9.934;2022-10-18T17:14:43;15.40;99.90
15450;DHT22;7826;49.784;9.934;2022-10-18T17:17:11;15.40;99.90
15450;DHT22;7826;49.784;9.934;2022-10-18T17:19:37;15.40;99.90
15450;DHT22;7826;49.784;9.934;2022-10-18T17:22:03;15.30;99.90
15450;DHT22;7826;49.784;9.934;2022-10-18T17:24:29;15.40;99.90
15450;DHT22;7826;49.784;9.934;2022-10-18T17:26:56;15.30;99.90
15450;DHT22;7826;49.784;9.934;2022-10-18T17:29:22;15.30;99.90
15450;DHT22;7826;49.784;9.934;2022-10-18T17:31:48;15.30;99.90
15450;DHT22;7826;49.784;9.934;2022-10-18T17:34:15;15.30;99.90
15450;DHT22;7826;49.784;9.934;2022-10-18T17:36:44;15.20;99.90
15450;DHT22;7826;49.784;9.934;2022-10-18T17:39:10;15.20;99.90
15450;DHT22;7826;49.784;9.934;2022-10-18T17:41:37;15.20;99.90
15450;DHT22;7826;49.784;9.934;2022-10-18T17:44:03;15.20;99.90
15450;DHT22;7826;49.784;9.934;2022-10-18T17:46:30;15.20;99.90
15450;DHT22;7826;49.784;9.934;2022-10-18T17:48:56;15.30;99.90
15450;DHT22;7826;49.784;9.934;2022-10-18T17:51:23;15.20;99.90
15450;DHT22;7826;49.784;9.934;2022-10-18T17:53:49;15.10;99.90
15450;DHT22;7826;49.784;9.934;2022-10-18T17:56:15;15.10;99.90
15450;DHT22;7826;49.784;9.934;2022-10-18T17:58:42;15.00;99.90
15450;DHT22;7826;49.784;9.934;2022-10-18T18:01:15;15.00;99.90
15450;DHT22;7826;49.784;9.934;2022-10-18T18:03:42;15.00;99.90
15450;DHT22;7826;49.784;9.934;2022-10-18T18:06:20;14.90;99.90
15450;DHT22;7826;49.784;9.934;2022-10-18T18:08:47;15.00;99.90
15450;DHT22;7826;49.784;9.934;2022-10-18T18:11:14;15.00;99.90
15450;DHT22;7826;49.784;9.934;2022-10-18T18:13:40;14.90;99.90
15450;DHT22;7826;49.784;9.934;2022-10-18T18:16:20;14.90;99.90
15450;DHT22;7826;49.784;9.934;2022-10-18T18:18:50;14.80;99.90
15450;DHT22;7826;49.784;9.934;2022-10-18T18:21:17;14.80;99.90
15450;DHT22;7826;49.784;9.934;2022-10-18T18:23:43;14.80;99.90
15450;DHT22;7826;49.784;9.934;2022-10-18T18:26:10;14.80;99.90
15450;DHT22;7826;49.784;9.934;2022-10-18T18:28:36;14.70;99.90
15450;DHT22;7826;49.784;9.934;2022-10-18T18:31:07;14.70;99.90
15450;DHT22;7826;49.784;9.934;2022-10-18T18:33:35;14.70;99.90
15450;DHT22;7826;49.784;9.934;2022-10-18T18:36:02;14.70;99.90
15450;DHT22;7826;49.784;9.934;2022-10-18T18:38:31;14.60;99.90
15450;DHT22;7826;49.784;9.934;2022-10-18T18:41:08;14.60;99.90
15450;DHT22;7826;49.784;9.934;2022-10-18T18:43:35;14.60;99.90
15450;DHT22;7826;49.784;9.934;2022-10-18T18:46:03;14.50;99.90
15450;DHT22;7826;49.784;9.934;2022-10-18T18:48:31;14.60;99.90
15450;DHT22;7826;49.784;9.934;2022-10-18T18:50:59;14.60;99.90
15450;DHT22;7826;49.784;9.934;2022-10-18T18:53:25;14.60;99.90
15450;DHT22;7826;49.784;9.934;2022-10-18T18:55:51;14.60;99.90
15450;DHT22;7826;49.784;9.934;2022-10-18T18:58:17;14.60;99.90
15450;DHT22;7826;49.784;9.934;2022-10-18T19:00:44;14.50;99.90
15450;DHT22;7826;49.784;9.934;2022-10-18T19:03:11;14.60;99.90